Virginia Peak (RGX), Nevada Weather observations

 Day   Time    Ave.   Ave.  Ave.  Vector  Max.   Total    Solar  
  of    of     Air    Rel.  Wind   Wind   Wind  Precip.   Rad.   
Year   Day     Temp.  Hum.  Speed  Dir.   Gust                   
2015   (PST)    F      %     mph   deg.    mph    in.     W/m2  
----------------------------------------------------------------
  89   12:15   56.0    25   10.8   127    18.6   999.00     999
  89   12:30   59.0    21   10.8   206    14.4   999.00     999
  89   12:45   58.0    22   11.4   147    18.0   999.00     999
  89   13:00   58.0    23    8.4   168    16.2   999.00     999
  89   13:15   58.0    23   13.8   140    16.2   999.00     999
  89   13:30   59.0    21    9.0    90    14.4   999.00     999
  89   13:45   60.0    21   10.8   213    20.4   999.00     999
  89   14:00   58.0    22   11.4   247    18.0   999.00     999
  89   14:15   59.0    21   22.8   267    27.0   999.00     999
  89   14:30   59.0    23   28.8   243    31.2   999.00     999
  89   14:45   58.0    23   23.4   211    30.6   999.00     999
  89   15:00   57.0    24   24.0   241    33.0   999.00     999
  89   15:15   57.0    25   24.0   262    31.8   999.00     999
  89   15:30   57.0    25   23.4   243    32.4   999.00     999
  89   15:45   58.0    26   28.2   229    37.2   999.00     999
  89   16:00   57.0    26   24.0   236    36.6   999.00     999
  89   16:15   57.0    29   30.0   278   999.0   999.00     999
  89   16:30   56.0    29   25.2   264    30.6   999.00     999
  89   16:45   56.0    28   28.8   263    30.6   999.00     999
  89   17:00   54.0    27   30.0   257    34.2   999.00     999
  89   17:15   53.0    27   27.6   263    31.8   999.00     999
  89   17:30   52.0    31   29.4   262    30.6   999.00     999
  89   17:45   52.0    31   25.8   266   999.0   999.00     999
  89   18:00   51.0    31   24.0   258    27.6   999.00     999
  89   18:15   50.0    31   24.6   261    27.0   999.00     999
  89   18:30   49.0    31   25.2   999    30.6   999.00     999
  89   18:45   49.0    30   29.4   267    33.0   999.00     999
  89   19:00   49.0    31   33.6   258   999.0   999.00     999
  89   19:15   49.0    30   32.4   267    37.8   999.00     999
  89   19:30   48.0    32   33.0   267    33.6   999.00     999
  89   19:45   47.0    38   31.8   279    35.4   999.00     999
  89   20:00   46.0    38   31.8   275    33.6   999.00     999
  89   20:15   46.0    42   30.6   268    33.6   999.00     999
  89   20:30   45.0    43   28.2   271    31.2   999.00     999
  89   20:45   45.0    43   27.6   273    29.4   999.00     999
  89   21:00   45.0    43   25.2   270    28.2   999.00     999
  89   21:15   44.0    43   25.8   271    27.6   999.00     999
  89   21:30   44.0    43   27.0   268    28.2   999.00     999
  89   21:45   44.0    43   28.8   267    28.8   999.00     999
  89   22:00   44.0    41   27.0   266    28.8   999.00     999
  89   22:15   45.0    40   29.4   265    33.6   999.00     999
  89   22:30   44.0    39   33.0   262    35.4   999.00     999
  89   22:45   44.0    38   31.2   266    33.0   999.00     999
  89   23:00   44.0    35   32.4   266    33.0   999.00     999
  89   23:15   44.0    35  999.0   264    34.2   999.00     999
  89   23:30   44.0    33   33.0   261    33.6   999.00     999
  89   23:45   44.0    33   32.4   264    33.6   999.00     999
  90    0:00   43.0    33   32.4   267    32.4   999.00     999
  90    0:15   43.0    34   32.4   262    34.2   999.00     999
  90    0:30   43.0    35   34.2   265    34.2   999.00     999
  90    0:45   41.0    40   30.6   271    34.2   999.00     999
  90    1:00   42.0    34   33.0   259    34.8   999.00     999
  90    1:15   43.0    30   33.6   252    36.6   999.00     999
  90    1:30   43.0    29   25.8   255    31.8   999.00     999
  90    1:45   43.0    29   27.6   261    29.4   999.00     999
  90    2:00   43.0    30   25.8   258    28.2   999.00     999
  90    2:15  999.0    29   28.8   999    33.6   999.00     999
  90    2:30   43.0    32   21.0   251    31.8   999.00     999
  90    2:45   42.0    33   23.4   246    24.6   999.00     999
  90    3:00   42.0    34   26.4   253    28.2   999.00     999
  90    3:15   41.0    36   26.4   257    30.0   999.00     999
  90    3:30   40.0    34   30.6   999    30.6   999.00     999
  90    3:45   39.0    38   25.2   260    30.6   999.00     999
  90    4:00   38.0    38   28.2   259    30.0   999.00     999
  90    4:15   39.0    36   24.6   256    33.6   999.00     999
  90    4:30   38.0    37   22.2   257    28.2   999.00     999
  90    4:45   38.0    31   26.4   250    28.2   999.00     999
  90    5:00   39.0    32   23.4   242    28.2   999.00     999
  90    5:15   39.0    32   22.2   247    30.0   999.00     999
  90    5:30   39.0    33   14.4   269    24.6   999.00     999
  90    5:45   38.0    33   16.2   262    20.4   999.00     999
  90    6:00   37.0    33   18.0   264    21.0   999.00     999
  90    6:15   37.0    31   19.2   264    21.6   999.00     999
  90    6:30   37.0    29   19.2   260    21.6   999.00     999
  90    6:45   38.0    28   18.6   999    22.2   999.00     999
  90    7:00   38.0    27   17.4   251    21.6   999.00     999
  90    7:15   39.0    25   22.8   259    26.4   999.00     999
  90    7:30   39.0    25   21.0   258    25.2   999.00     999
  90    7:45   39.0    27   15.6   256    21.6   999.00     999
  90    8:00   39.0    27   16.8   257    21.6   999.00     999
  90    8:15   39.0    27   25.8   999    27.6   999.00     999
  90    8:30   39.0    27   21.0   260    29.4   999.00     999
  90    8:45   40.0    25   31.2   245    36.6   999.00     999
  90    9:00   41.0    25   37.8   261    42.0   999.00     999
  90    9:15   42.0    24   39.0   259    51.0   999.00     999
  90    9:30   42.0    25   40.8   259    47.4   999.00     999
  90    9:45   42.0    24   42.0   259    48.6   999.00     999
  90   10:00   43.0    22   42.0   253    52.2   999.00     999
  90   10:15   43.0    21   52.2   249    57.6   999.00     999
  90   10:30   43.0    20   54.0   254    61.8   999.00     999
  90   10:45   44.0    20   54.0   251    58.8   999.00     999
  90   11:00   44.0    21   49.2   248    59.4   999.00     999
  90   11:15   44.0    23   43.8   244    54.0   999.00     999
  90   11:30   44.0    24   48.0   262    52.8   999.00     999
  90   11:45   44.0    26   45.0   248    58.2   999.00     999
  90   12:00   44.0    26   42.0   250    54.0   999.00     999

Return to Virginia Peak (RGX) graphs page.


Western Regional Climate Center,wrcc@dri.edu